createdAt,value
2018-04-23T00:00:40.370Z,99.90
2018-04-23T00:03:09.049Z,99.90
2018-04-23T00:05:37.004Z,99.90
2018-04-23T00:08:04.906Z,99.90
2018-04-23T00:10:33.576Z,99.90
2018-04-23T00:13:01.533Z,99.90
2018-04-23T00:15:29.434Z,99.90
2018-04-23T00:17:57.386Z,99.90
2018-04-23T00:20:25.282Z,99.90
2018-04-23T00:22:53.260Z,99.90
2018-04-23T00:25:21.165Z,99.90
2018-04-23T00:27:49.115Z,99.90
2018-04-23T00:30:17.780Z,99.90
2018-04-23T00:32:45.747Z,99.90
2018-04-23T00:35:13.651Z,99.90
2018-04-23T00:37:41.613Z,99.90
2018-04-23T00:40:09.505Z,99.90
2018-04-23T00:42:37.458Z,99.90
2018-04-23T00:45:05.373Z,99.90
2018-04-23T00:47:34.119Z,99.90
2018-04-23T00:50:02.028Z,99.90
2018-04-23T00:52:30.745Z,99.90
2018-04-23T00:54:58.654Z,99.90
2018-04-23T00:57:30.305Z,99.90
2018-04-23T00:59:58.212Z,99.90
2018-04-23T01:02:26.117Z,99.90
2018-04-23T01:04:54.068Z,99.90
2018-04-23T01:07:22.721Z,99.90
2018-04-23T01:09:50.666Z,99.90
2018-04-23T01:12:18.588Z,99.90
2018-04-23T01:14:47.339Z,99.90
2018-04-23T01:17:15.233Z,99.90
2018-04-23T01:19:43.232Z,99.90
2018-04-23T01:22:11.125Z,99.90
2018-04-23T01:24:39.070Z,99.90
2018-04-23T01:27:06.956Z,99.90
2018-04-23T01:29:34.897Z,99.90
2018-04-23T01:32:03.593Z,99.90
2018-04-23T01:34:31.554Z,99.90
2018-04-23T01:37:00.231Z,99.90
2018-04-23T01:39:28.949Z,99.90
2018-04-23T01:41:56.878Z,99.90
2018-04-23T01:44:24.891Z,99.90
2018-04-23T01:46:52.780Z,99.90
2018-04-23T01:49:20.731Z,99.90
2018-04-23T01:51:48.642Z,99.90
2018-04-23T01:54:16.613Z,99.90
2018-04-23T01:56:44.509Z,99.90
2018-04-23T01:59:13.200Z,99.90
2018-04-23T02:01:41.169Z,99.90
2018-04-23T02:04:09.825Z,99.90
2018-04-23T02:06:37.782Z,99.90
2018-04-23T02:09:05.785Z,99.90
2018-04-23T02:11:34.494Z,99.90
2018-04-23T02:14:02.393Z,99.90
2018-04-23T02:16:30.517Z,99.90
2018-04-23T02:18:59.180Z,99.90
2018-04-23T02:21:27.145Z,99.90
2018-04-23T02:23:55.045Z,99.90
2018-04-23T02:26:23.761Z,99.90
2018-04-23T02:28:51.730Z,99.90
2018-04-23T02:31:19.699Z,99.90
2018-04-23T02:33:47.616Z,99.90
2018-04-23T02:36:15.573Z,99.90
2018-04-23T02:38:43.505Z,99.90
2018-04-23T02:41:11.461Z,99.90
2018-04-23T02:43:40.128Z,99.90
2018-04-23T02:46:08.083Z,99.90
2018-04-23T02:48:35.980Z,99.90
2018-04-23T02:51:04.701Z,99.90
2018-04-23T02:53:32.605Z,99.90
2018-04-23T02:56:00.551Z,99.90
2018-04-23T02:58:28.459Z,99.90
2018-04-23T03:00:56.407Z,99.90
2018-04-23T03:03:24.301Z,99.90
2018-04-23T03:05:52.261Z,99.90
2018-04-23T03:08:20.157Z,99.90
2018-04-23T03:10:49.243Z,99.90
2018-04-23T03:13:17.906Z,99.90
2018-04-23T03:15:45.859Z,99.90
2018-04-23T03:18:13.757Z,99.90
2018-04-23T03:20:41.710Z,99.90
2018-04-23T03:23:09.617Z,99.90
2018-04-23T03:25:38.373Z,99.90
2018-04-23T03:28:06.323Z,99.90
2018-04-23T03:30:34.283Z,99.90
2018-04-23T03:33:02.191Z,99.90
2018-04-23T03:35:30.145Z,99.90
2018-04-23T03:37:58.070Z,99.90
2018-04-23T03:40:26.029Z,99.90
2018-04-23T03:42:54.700Z,99.90
2018-04-23T03:45:23.427Z,99.90
2018-04-23T03:47:51.343Z,99.90
2018-04-23T03:50:19.290Z,99.90
2018-04-23T03:52:47.186Z,99.90
2018-04-23T03:55:15.082Z,99.90
2018-04-23T03:57:43.109Z,99.90
2018-04-23T04:00:11.021Z,99.90
2018-04-23T04:02:39.753Z,99.90
2018-04-23T04:05:07.696Z,99.90
2018-04-23T04:07:35.732Z,99.90
2018-04-23T04:10:04.428Z,99.90
2018-04-23T04:12:45.022Z,99.90
2018-04-23T04:15:24.769Z,99.90
2018-04-23T04:21:11.355Z,99.90
2018-04-23T04:23:42.489Z,99.90
2018-04-23T04:26:13.953Z,99.90
2018-04-23T04:28:45.261Z,99.90
2018-04-23T04:31:13.281Z,99.90
2018-04-23T04:33:41.947Z,99.90
2018-04-23T04:36:09.893Z,99.90
2018-04-23T04:38:37.800Z,99.90
2018-04-23T04:41:05.983Z,99.90
2018-04-23T04:43:38.145Z,99.90
2018-04-23T04:46:09.634Z,99.90
2018-04-23T04:48:41.608Z,99.90
2018-04-23T04:51:13.422Z,99.90
2018-04-23T04:53:44.975Z,99.90
2018-04-23T04:56:17.034Z,99.90
2018-04-23T04:58:46.889Z,99.90
2018-04-23T05:01:18.373Z,99.90
2018-04-23T05:03:49.218Z,99.90
2018-04-23T05:06:20.755Z,99.90
2018-04-23T05:08:52.941Z,99.90
2018-04-23T05:11:24.466Z,99.90
2018-04-23T05:13:57.205Z,99.90
2018-04-23T05:16:27.424Z,99.90
2018-04-23T05:18:57.947Z,99.90
2018-04-23T05:21:26.790Z,99.90
2018-04-23T05:23:54.703Z,99.90
2018-04-23T05:26:23.444Z,99.90
2018-04-23T05:28:51.350Z,99.90
2018-04-23T05:31:19.308Z,99.90
2018-04-23T05:33:47.209Z,99.90
2018-04-23T05:36:15.177Z,99.90
2018-04-23T05:38:43.071Z,99.90
2018-04-23T05:41:11.796Z,99.90
2018-04-23T05:43:39.723Z,99.90
2018-04-23T05:46:08.467Z,99.90
2018-04-23T05:48:36.386Z,99.90
2018-04-23T05:51:04.359Z,99.90
2018-04-23T05:53:33.066Z,99.90
2018-04-23T05:56:01.017Z,99.90
2018-04-23T05:58:28.916Z,99.90
2018-04-23T06:00:56.824Z,99.90
2018-04-23T06:03:24.773Z,99.90
2018-04-23T06:05:52.695Z,99.90
2018-04-23T06:08:20.657Z,99.90
2018-04-23T06:10:49.320Z,99.90
2018-04-23T06:13:17.266Z,99.90
2018-04-23T06:15:45.178Z,99.90
2018-04-23T06:18:13.896Z,99.90
2018-04-23T06:20:41.791Z,99.90
2018-04-23T06:23:09.731Z,99.90
2018-04-23T06:25:37.625Z,99.90
2018-04-23T06:28:05.588Z,99.90
2018-04-23T06:30:33.507Z,99.90
2018-04-23T06:33:02.220Z,99.90
2018-04-23T06:35:30.145Z,99.90
2018-04-23T06:37:58.106Z,99.90
2018-04-23T06:40:26.010Z,99.90
2018-04-23T06:42:54.733Z,99.90
2018-04-23T06:45:22.634Z,99.90
2018-04-23T06:47:50.601Z,99.90
2018-04-23T06:50:18.493Z,99.90
2018-04-23T06:52:46.452Z,99.90
2018-04-23T06:55:14.370Z,99.90
2018-04-23T06:57:42.324Z,99.90
2018-04-23T07:00:11.021Z,99.90
2018-04-23T07:02:38.984Z,99.90
2018-04-23T07:05:07.687Z,99.90
2018-04-23T07:07:35.669Z,99.90
2018-04-23T07:10:03.631Z,99.90
2018-04-23T07:12:31.581Z,99.90
2018-04-23T07:14:59.485Z,99.90
2018-04-23T07:17:27.491Z,99.90
2018-04-23T07:19:55.445Z,99.90
2018-04-23T07:22:23.396Z,99.90
2018-04-23T07:24:51.285Z,99.90
2018-04-23T07:27:19.242Z,99.90
2018-04-23T07:29:47.147Z,99.90
2018-04-23T07:32:15.107Z,99.90
2018-04-23T07:34:43.020Z,98.30
2018-04-23T07:37:10.973Z,99.90
2018-04-23T07:39:39.636Z,99.90
2018-04-23T07:42:07.648Z,99.90
2018-04-23T07:44:35.535Z,99.90
2018-04-23T07:47:03.501Z,99.90
2018-04-23T07:49:31.389Z,99.90
2018-04-23T07:51:59.330Z,99.90
2018-04-23T07:54:27.218Z,99.90
2018-04-23T07:56:55.166Z,99.90
2018-04-23T07:59:23.075Z,99.90
2018-04-23T08:01:51.008Z,99.90
2018-04-23T08:04:18.889Z,99.90
2018-04-23T08:06:46.884Z,99.90
2018-04-23T08:09:14.848Z,99.60
2018-04-23T08:11:42.788Z,95.80
2018-04-23T08:14:10.659Z,90.90
2018-04-23T08:16:38.593Z,97.40
2018-04-23T08:19:07.253Z,99.10
2018-04-23T08:21:35.207Z,99.20
2018-04-23T08:24:03.099Z,99.90
2018-04-23T08:26:30.992Z,99.90
2018-04-23T08:29:00.882Z,99.90
2018-04-23T08:31:28.870Z,99.90
2018-04-23T08:33:57.585Z,96.20
2018-04-23T08:36:25.474Z,96.30
2018-04-23T08:38:53.433Z,90.00
2018-04-23T08:41:22.157Z,88.80
2018-04-23T08:43:50.154Z,88.60
2018-04-23T08:46:18.073Z,68.90
2018-04-23T08:48:46.153Z,64.80
2018-04-23T08:51:14.098Z,65.60
2018-04-23T08:53:42.048Z,63.10
2018-04-23T08:56:10.712Z,55.20
2018-04-23T08:58:38.709Z,55.20
2018-04-23T09:01:07.378Z,54.80
2018-04-23T09:03:36.112Z,52.70
2018-04-23T09:06:04.064Z,52.70
2018-04-23T09:08:32.029Z,53.80
2018-04-23T09:10:59.926Z,52.70
2018-04-23T09:13:29.038Z,49.70
2018-04-23T09:15:57.160Z,49.60
2018-04-23T09:18:25.117Z,49.30
2018-04-23T09:20:53.791Z,46.70
2018-04-23T09:23:21.789Z,46.70
2018-04-23T09:25:49.692Z,45.60
2018-04-23T09:28:19.705Z,45.60
2018-04-23T09:30:47.646Z,45.40
2018-04-23T09:33:16.306Z,50.10
2018-04-23T09:35:44.276Z,50.00
2018-04-23T09:38:12.183Z,53.10
2018-04-23T09:40:40.129Z,52.90
2018-04-23T09:43:08.829Z,55.40
2018-04-23T09:45:37.535Z,58.30
2018-04-23T09:48:05.419Z,58.40
2018-04-23T09:50:33.417Z,59.70
2018-04-23T09:53:01.334Z,73.70
2018-04-23T09:55:29.417Z,96.40
2018-04-23T09:57:57.402Z,99.90
2018-04-23T10:00:31.534Z,97.00
2018-04-23T10:02:59.477Z,98.50
2018-04-23T10:05:27.437Z,99.90
2018-04-23T10:07:55.325Z,99.90
2018-04-23T10:10:23.287Z,99.90
2018-04-23T10:12:51.221Z,99.90
2018-04-23T10:15:19.943Z,95.20
2018-04-23T10:17:47.856Z,95.30
2018-04-23T10:20:17.250Z,91.60
2018-04-23T10:22:45.149Z,93.50
2018-04-23T10:25:14.152Z,92.50
2018-04-23T10:27:42.821Z,94.00
2018-04-23T10:30:10.725Z,94.10
2018-04-23T10:32:38.808Z,99.90
2018-04-23T10:35:06.728Z,99.60
2018-04-23T10:37:34.670Z,94.90
2018-04-23T10:40:02.566Z,99.90
2018-04-23T10:42:30.542Z,92.80
2018-04-23T10:44:59.215Z,86.90
2018-04-23T10:47:27.203Z,87.10
2018-04-23T10:49:55.102Z,78.60
2018-04-23T10:52:23.057Z,81.50
2018-04-23T10:54:51.717Z,89.00
2018-04-23T10:57:19.685Z,88.90
2018-04-23T10:59:47.588Z,84.40
2018-04-23T11:02:15.553Z,76.10
2018-04-23T11:04:46.061Z,82.30
2018-04-23T11:07:14.023Z,80.70
2018-04-23T11:09:41.947Z,81.30
2018-04-23T11:12:15.591Z,82.40
2018-04-23T11:14:47.434Z,88.10
2018-04-23T11:17:15.446Z,95.00
2018-04-23T11:19:44.116Z,99.90
2018-04-23T11:22:19.610Z,99.90
2018-04-23T11:24:47.568Z,99.90
2018-04-23T11:27:17.680Z,99.90
2018-04-23T11:29:46.350Z,99.90
2018-04-23T11:32:15.026Z,99.90
2018-04-23T11:34:43.039Z,99.90
2018-04-23T11:37:12.276Z,99.90
2018-04-23T11:39:40.230Z,99.90
2018-04-23T11:42:08.174Z,99.90
2018-04-23T11:44:36.138Z,99.90
2018-04-23T11:47:04.091Z,99.90
2018-04-23T11:49:32.837Z,99.90
2018-04-23T11:52:00.754Z,99.90
2018-04-23T11:54:29.490Z,98.30
2018-04-23T11:56:57.415Z,98.30
2018-04-23T11:59:26.142Z,95.30
2018-04-23T12:01:54.041Z,96.10
2018-04-23T12:04:22.056Z,92.00
2018-04-23T12:06:49.966Z,93.60
2018-04-23T12:09:17.946Z,87.20
2018-04-23T12:11:45.846Z,88.30
2018-04-23T12:14:14.862Z,76.00
2018-04-23T12:16:42.782Z,75.50
2018-04-23T12:19:10.752Z,73.30
2018-04-23T12:21:38.688Z,71.00
2018-04-23T12:24:06.692Z,72.30
2018-04-23T12:26:34.602Z,73.90
2018-04-23T12:29:03.345Z,71.80
2018-04-23T12:31:31.365Z,72.10
2018-04-23T12:33:59.326Z,71.30
2018-04-23T12:36:28.033Z,74.90
2018-04-23T12:38:55.993Z,75.00
2018-04-23T12:41:24.733Z,70.10
2018-04-23T12:43:52.692Z,70.10
2018-04-23T12:46:20.617Z,76.20
2018-04-23T12:48:49.346Z,67.40
2018-04-23T12:51:17.272Z,67.10
2018-04-23T12:53:45.235Z,70.00
2018-04-23T12:56:13.901Z,67.70
2018-04-23T12:58:41.872Z,67.60
2018-04-23T13:01:09.774Z,69.80
2018-04-23T13:03:37.717Z,71.30
2018-04-23T13:06:05.613Z,66.60
2018-04-23T13:08:34.338Z,69.30
2018-04-23T13:11:02.247Z,69.40
2018-04-23T13:13:30.184Z,71.60
2018-04-23T13:15:58.104Z,66.60
2018-04-23T13:18:26.870Z,66.80
2018-04-23T13:20:54.810Z,66.70
2018-04-23T13:23:22.775Z,66.60
2018-04-23T13:25:50.707Z,67.20
2018-04-23T13:28:18.653Z,72.20
2018-04-23T13:30:46.553Z,67.40
2018-04-23T13:33:14.495Z,72.30
2018-04-23T13:35:43.181Z,69.80
2018-04-23T13:38:11.116Z,69.60
2018-04-23T13:40:39.003Z,70.00
2018-04-23T13:43:06.946Z,75.70
2018-04-23T13:45:34.847Z,76.00
2018-04-23T13:48:02.806Z,72.60
2018-04-23T13:50:30.718Z,74.10
2018-04-23T13:52:58.695Z,75.10
2018-04-23T13:55:26.634Z,74.50
2018-04-23T13:57:55.374Z,69.40
2018-04-23T14:00:23.297Z,68.90
2018-04-23T14:02:51.969Z,70.30
2018-04-23T14:05:19.919Z,70.40
2018-04-23T14:07:47.809Z,70.90
2018-04-23T14:10:15.765Z,70.10
2018-04-23T14:12:43.663Z,67.70
2018-04-23T14:15:12.391Z,66.90
2018-04-23T14:17:40.305Z,66.90
2018-04-23T14:20:09.033Z,71.30
2018-04-23T14:22:36.995Z,71.20
2018-04-23T14:25:04.967Z,70.40
2018-04-23T14:27:33.247Z,74.40
2018-04-23T14:30:01.720Z,69.50
2018-04-23T14:32:29.749Z,72.00
2018-04-23T14:34:59.922Z,72.30
2018-04-23T14:37:27.831Z,65.50
2018-04-23T14:39:55.785Z,71.60
2018-04-23T14:42:23.688Z,71.30
2018-04-23T14:44:51.977Z,69.80
2018-04-23T14:47:19.896Z,68.40
2018-04-23T14:49:47.865Z,74.50
2018-04-23T14:52:16.545Z,68.90
2018-04-23T14:54:48.484Z,68.80
2018-04-23T14:57:17.157Z,73.60
2018-04-23T14:59:45.457Z,73.50
2018-04-23T15:02:13.369Z,67.70
2018-04-23T15:04:41.327Z,69.70
2018-04-23T15:07:09.228Z,71.70
2018-04-23T15:09:37.186Z,74.00
2018-04-23T15:12:05.105Z,70.30
2018-04-23T15:14:33.061Z,71.10
2018-04-23T15:17:01.752Z,72.50
2018-04-23T15:19:30.494Z,68.90
2018-04-23T15:21:58.484Z,69.00
2018-04-23T15:24:26.455Z,73.30
2018-04-23T15:26:54.420Z,73.30
2018-04-23T15:29:22.382Z,70.60
2018-04-23T15:31:50.350Z,73.50
2018-04-23T15:34:18.329Z,68.30
2018-04-23T15:36:46.241Z,72.00
2018-04-23T15:39:14.209Z,70.50
2018-04-23T15:41:42.100Z,71.20
2018-04-23T15:44:10.067Z,76.20
2018-04-23T15:46:38.019Z,75.40
2018-04-23T15:49:09.943Z,73.80
2018-04-23T15:51:37.857Z,72.60
2018-04-23T15:54:05.818Z,71.80
2018-04-23T15:56:33.726Z,70.60
2018-04-23T15:59:01.669Z,72.40
2018-04-23T16:01:29.570Z,72.90
2018-04-23T16:03:57.520Z,74.70
2018-04-23T16:06:25.427Z,76.30
2018-04-23T16:08:53.441Z,74.90
2018-04-23T16:11:21.335Z,75.30
2018-04-23T16:13:49.281Z,77.80
2018-04-23T16:16:17.170Z,74.60
2018-04-23T16:18:45.140Z,73.80
2018-04-23T16:21:13.037Z,74.70
2018-04-23T16:23:41.016Z,75.30
2018-04-23T16:26:08.917Z,75.60
2018-04-23T16:28:37.685Z,75.40
2018-04-23T16:31:05.587Z,75.60
2018-04-23T16:33:33.598Z,76.60
2018-04-23T16:36:01.491Z,76.80
2018-04-23T16:38:29.444Z,76.90
2018-04-23T16:40:57.353Z,77.10
2018-04-23T16:43:26.036Z,76.50
2018-04-23T16:45:54.756Z,74.60
2018-04-23T16:48:23.011Z,74.60
2018-04-23T16:50:54.177Z,78.60
2018-04-23T16:53:26.143Z,79.20
2018-04-23T16:55:57.569Z,78.70
2018-04-23T16:58:28.627Z,77.50
2018-04-23T17:00:59.012Z,79.90
2018-04-23T17:03:30.118Z,79.70
2018-04-23T17:06:01.478Z,80.30
2018-04-23T17:08:32.731Z,81.90
2018-04-23T17:11:03.578Z,82.70
2018-04-23T17:13:34.621Z,83.20
2018-04-23T17:16:06.326Z,82.90
2018-04-23T17:18:37.952Z,85.20
2018-04-23T17:21:09.064Z,85.20
2018-04-23T17:23:39.110Z,86.20
2018-04-23T17:26:11.788Z,84.10
2018-04-23T17:28:42.273Z,84.00
2018-04-23T17:31:10.362Z,86.80
2018-04-23T17:33:38.260Z,90.80
2018-04-23T17:36:07.084Z,85.40
2018-04-23T17:38:37.185Z,85.40
2018-04-23T17:41:06.437Z,88.00
2018-04-23T17:43:37.877Z,87.90
2018-04-23T17:46:09.105Z,87.70
2018-04-23T17:48:38.882Z,89.40
2018-04-23T17:51:10.031Z,88.80
2018-04-23T17:53:42.203Z,90.60
2018-04-23T17:56:11.571Z,91.60
2018-04-23T17:58:42.661Z,91.60
2018-04-23T18:01:15.558Z,95.90
2018-04-23T18:03:43.522Z,96.20
2018-04-23T18:06:11.529Z,96.90
2018-04-23T18:08:39.438Z,98.90
2018-04-23T18:11:07.443Z,99.90
2018-04-23T18:13:35.403Z,99.90
2018-04-23T18:16:04.168Z,99.90
2018-04-23T18:18:38.983Z,99.90
2018-04-23T18:21:06.962Z,99.90
2018-04-23T18:23:34.902Z,99.90
2018-04-23T18:26:02.954Z,99.90
2018-04-23T18:28:30.850Z,99.90
2018-04-23T18:31:00.039Z,99.90
2018-04-23T18:33:33.749Z,99.90
2018-04-23T18:36:01.735Z,99.90
2018-04-23T18:38:31.199Z,99.90
2018-04-23T18:40:59.203Z,99.90
2018-04-23T18:43:27.099Z,99.90
2018-04-23T18:45:55.036Z,99.90
2018-04-23T18:48:22.937Z,99.90
2018-04-23T18:50:56.711Z,99.90
2018-04-23T18:53:24.614Z,99.90
2018-04-23T18:55:52.558Z,99.90
2018-04-23T18:58:20.466Z,99.90
2018-04-23T19:00:48.424Z,99.90
2018-04-23T19:03:16.347Z,99.90
2018-04-23T19:05:44.392Z,99.90
2018-04-23T19:08:12.267Z,99.90
2018-04-23T19:10:40.225Z,99.90
2018-04-23T19:13:08.903Z,99.90
2018-04-23T19:15:37.693Z,99.90
2018-04-23T19:18:06.437Z,99.90
2018-04-23T19:20:34.830Z,99.90
2018-04-23T19:23:02.743Z,99.90
2018-04-23T19:25:31.525Z,99.90
2018-04-23T19:28:00.228Z,99.90
2018-04-23T19:30:28.197Z,99.90
2018-04-23T19:32:56.118Z,99.90
2018-04-23T19:35:24.093Z,99.90
2018-04-23T19:37:52.004Z,99.90
2018-04-23T19:40:19.994Z,99.90
2018-04-23T19:42:47.900Z,99.90
2018-04-23T19:45:15.921Z,99.90
2018-04-23T19:47:43.903Z,99.90
2018-04-23T19:50:11.967Z,99.90
2018-04-23T19:52:39.883Z,99.90
2018-04-23T19:55:07.946Z,99.90
2018-04-23T19:57:35.858Z,99.90
2018-04-23T20:00:03.918Z,99.90
2018-04-23T20:02:31.905Z,99.90
2018-04-23T20:04:59.877Z,99.90
2018-04-23T20:07:27.785Z,99.90
2018-04-23T20:09:55.815Z,99.90
2018-04-23T20:12:23.786Z,99.90
2018-04-23T20:14:51.763Z,99.90
2018-04-23T20:17:19.666Z,99.90
2018-04-23T20:19:47.662Z,99.90
2018-04-23T20:22:15.645Z,99.90
2018-04-23T20:24:44.365Z,99.90
2018-04-23T20:27:12.291Z,99.90
2018-04-23T20:29:40.416Z,99.90
2018-04-23T20:32:09.102Z,99.90
2018-04-23T20:34:37.091Z,99.90
2018-04-23T20:37:08.050Z,99.90
2018-04-23T20:39:39.313Z,99.90
2018-04-23T20:42:10.643Z,99.90
2018-04-23T20:44:41.564Z,99.90
2018-04-23T20:47:10.295Z,99.90
2018-04-23T20:49:39.050Z,99.90
2018-04-23T20:52:06.989Z,99.90
2018-04-23T20:54:35.214Z,99.90
2018-04-23T20:57:03.218Z,99.90
2018-04-23T20:59:31.967Z,99.90
2018-04-23T21:02:00.733Z,99.90
2018-04-23T21:04:28.642Z,99.90
2018-04-23T21:06:56.595Z,99.90
2018-04-23T21:09:24.485Z,99.90
2018-04-23T21:11:53.238Z,99.90
2018-04-23T21:14:21.136Z,99.90
2018-04-23T21:16:49.084Z,99.90
2018-04-23T21:19:16.985Z,99.90
2018-04-23T21:21:44.949Z,99.90
2018-04-23T21:24:12.879Z,99.90
2018-04-23T21:26:41.547Z,99.90
2018-04-23T21:29:09.444Z,99.90
2018-04-23T21:31:37.391Z,99.90
2018-04-23T21:34:05.333Z,99.90
2018-04-23T21:36:34.056Z,99.90
2018-04-23T21:39:02.720Z,99.90
2018-04-23T21:41:30.672Z,99.90
2018-04-23T21:43:59.345Z,99.90
2018-04-23T21:46:27.325Z,99.90
2018-04-23T21:48:55.261Z,99.90
2018-04-23T21:51:23.228Z,99.90
2018-04-23T21:53:51.143Z,99.90
2018-04-23T21:56:19.100Z,99.90
2018-04-23T21:58:46.998Z,99.90
2018-04-23T22:01:14.963Z,99.90
2018-04-23T22:03:42.852Z,99.90
2018-04-23T22:06:10.813Z,99.90
2018-04-23T22:08:39.123Z,99.90
2018-04-23T22:11:07.784Z,99.90
2018-04-23T22:13:37.207Z,99.90
2018-04-23T22:16:05.177Z,99.90
2018-04-23T22:18:33.081Z,99.90
2018-04-23T22:21:01.030Z,99.90
2018-04-23T22:23:28.920Z,99.90
2018-04-23T22:25:56.858Z,99.90
2018-04-23T22:28:24.745Z,99.90
2018-04-23T22:30:52.682Z,99.90
2018-04-23T22:33:20.584Z,99.90
2018-04-23T22:35:48.525Z,99.90
2018-04-23T22:38:16.417Z,99.90
2018-04-23T22:40:44.424Z,99.90
2018-04-23T22:43:13.090Z,99.90
2018-04-23T22:45:41.062Z,99.90
2018-04-23T22:48:08.966Z,99.90
2018-04-23T22:50:36.927Z,99.90
2018-04-23T22:53:05.594Z,99.90
2018-04-23T22:55:33.554Z,99.90
2018-04-23T22:58:01.443Z,99.90
2018-04-23T23:00:30.175Z,99.90
2018-04-23T23:02:58.074Z,99.90
2018-04-23T23:05:26.051Z,99.90
2018-04-23T23:07:53.957Z,99.90
2018-04-23T23:10:21.926Z,99.90
2018-04-23T23:12:49.816Z,99.90
2018-04-23T23:15:17.773Z,99.90
2018-04-23T23:17:45.717Z,99.90
2018-04-23T23:20:14.445Z,99.90
2018-04-23T23:22:42.343Z,99.90
2018-04-23T23:25:10.305Z,99.90
2018-04-23T23:27:38.203Z,99.90
2018-04-23T23:30:06.113Z,99.90
2018-04-23T23:32:34.076Z,99.90
2018-04-23T23:35:02.019Z,99.90
2018-04-23T23:37:30.746Z,99.90
2018-04-23T23:40:00.964Z,99.90
2018-04-23T23:42:28.959Z,99.90
2018-04-23T23:44:59.815Z,99.90
2018-04-23T23:47:27.953Z,99.90
2018-04-23T23:49:55.851Z,99.90
2018-04-23T23:52:23.791Z,99.90
2018-04-23T23:54:51.720Z,99.90
2018-04-23T23:57:20.470Z,99.90
2018-04-23T23:59:48.389Z,99.90
